createdAt,value
2019-02-15T00:01:11.430Z,2.70
2019-02-15T00:05:15.772Z,2.70
2019-02-15T00:09:20.141Z,2.70
2019-02-15T00:13:24.382Z,2.60
2019-02-15T00:17:47.666Z,2.60
2019-02-15T00:21:53.339Z,2.60
2019-02-15T00:25:57.650Z,2.50
2019-02-15T00:30:01.759Z,2.40
2019-02-15T00:34:05.937Z,2.40
2019-02-15T00:38:10.093Z,2.30
2019-02-15T00:42:14.312Z,2.30
2019-02-15T00:46:33.302Z,2.30
2019-02-15T00:50:43.954Z,2.20
2019-02-15T00:55:08.342Z,2.20
2019-02-15T00:59:19.908Z,2.20
2019-02-15T01:03:39.337Z,2.20
2019-02-15T01:08:00.995Z,2.10
2019-02-15T01:12:08.344Z,2.10
2019-02-15T01:16:12.629Z,2.10
2019-02-15T01:20:16.826Z,2.00
2019-02-15T01:24:20.982Z,2.00
2019-02-15T01:28:30.623Z,2.00
2019-02-15T01:32:44.622Z,1.90
2019-02-15T01:36:56.722Z,1.90
2019-02-15T01:41:09.946Z,1.90
2019-02-15T01:45:18.904Z,1.80
2019-02-15T01:49:23.094Z,1.80
2019-02-15T01:53:27.360Z,1.80
2019-02-15T01:57:31.561Z,1.70
2019-02-15T02:01:35.820Z,1.70
2019-02-15T02:05:40.167Z,1.70
2019-02-15T02:09:44.263Z,1.70
2019-02-15T02:13:49.948Z,1.60
2019-02-15T02:17:54.250Z,1.60
2019-02-15T02:21:58.460Z,1.60
2019-02-15T02:26:02.647Z,1.60
2019-02-15T02:30:09.088Z,1.50
2019-02-15T02:34:13.376Z,1.50
2019-02-15T02:38:17.569Z,1.50
2019-02-15T02:42:21.847Z,1.40
2019-02-15T02:46:26.030Z,1.40
2019-02-15T02:50:30.127Z,1.40
2019-02-15T02:54:34.301Z,1.30
2019-02-15T02:58:38.616Z,1.30
2019-02-15T03:02:42.922Z,1.30
2019-02-15T03:06:47.207Z,1.30
2019-02-15T03:10:51.550Z,1.20
2019-02-15T03:14:55.932Z,1.20
2019-02-15T03:19:00.342Z,1.20
2019-02-15T03:23:04.740Z,1.20
2019-02-15T03:27:09.046Z,1.10
2019-02-15T03:31:13.415Z,1.10
2019-02-15T03:35:17.663Z,1.10
2019-02-15T03:39:37.398Z,1.10
2019-02-15T03:43:41.757Z,1.00
2019-02-15T03:47:45.964Z,1.00
2019-02-15T03:51:50.171Z,1.00
2019-02-15T03:59:57.994Z,0.90
2019-02-15T04:04:02.197Z,1.00
2019-02-15T04:08:06.453Z,1.00
2019-02-15T04:12:10.695Z,0.90
2019-02-15T04:16:14.899Z,0.90
2019-02-15T04:20:19.146Z,0.90
2019-02-15T04:24:23.459Z,0.80
2019-02-15T04:28:27.806Z,0.80
2019-02-15T04:32:32.134Z,0.80
2019-02-15T04:36:36.380Z,0.80
2019-02-15T04:40:40.755Z,0.80
2019-02-15T04:44:45.035Z,0.70
2019-02-15T04:48:49.329Z,0.70
2019-02-15T04:52:53.611Z,0.70
2019-02-15T04:56:57.912Z,0.70
2019-02-15T05:05:06.035Z,0.70
2019-02-15T05:09:10.242Z,0.60
2019-02-15T05:13:14.403Z,0.60
2019-02-15T05:17:18.666Z,0.60
2019-02-15T05:21:22.870Z,0.60
2019-02-15T05:25:27.094Z,0.60
2019-02-15T05:29:31.286Z,0.60
2019-02-15T05:33:35.718Z,0.50
2019-02-15T05:37:39.966Z,0.50
2019-02-15T05:41:44.078Z,0.50
2019-02-15T05:45:48.278Z,0.50
2019-02-15T05:49:52.660Z,0.50
2019-02-15T05:53:56.975Z,0.50
2019-02-15T05:58:01.134Z,0.50
2019-02-15T06:02:05.544Z,0.50
2019-02-15T06:06:09.906Z,0.50
2019-02-15T06:10:14.242Z,0.50
2019-02-15T06:14:18.585Z,0.50
2019-02-15T06:18:22.969Z,0.50
2019-02-15T06:22:27.224Z,0.40
2019-02-15T06:26:31.586Z,0.40
2019-02-15T06:30:40.278Z,0.40
2019-02-15T06:34:44.874Z,0.40
2019-02-15T06:38:49.203Z,0.40
2019-02-15T06:42:53.558Z,0.40
2019-02-15T06:46:58.081Z,0.40
2019-02-15T06:51:02.541Z,0.40
2019-02-15T06:55:06.882Z,0.40
2019-02-15T06:59:22.181Z,0.50
2019-02-15T07:03:44.433Z,0.60
2019-02-15T07:07:48.568Z,0.80
2019-02-15T07:11:52.757Z,1.00
2019-02-15T07:15:57.031Z,1.30
2019-02-15T07:20:01.246Z,1.70
2019-02-15T07:24:05.415Z,2.00
2019-02-15T07:28:09.653Z,2.10
2019-02-15T07:32:13.967Z,2.20
2019-02-15T07:36:18.470Z,2.10
2019-02-15T07:40:22.966Z,2.10
2019-02-15T07:44:27.258Z,2.00
2019-02-15T07:48:31.530Z,2.00
2019-02-15T07:52:35.776Z,1.90
2019-02-15T07:56:40.027Z,1.90
2019-02-15T08:00:44.314Z,1.90
2019-02-15T08:04:48.650Z,1.90
2019-02-15T08:08:52.957Z,1.90
2019-02-15T08:12:57.344Z,1.90
2019-02-15T08:17:01.671Z,1.90
2019-02-15T08:21:06.188Z,2.00
2019-02-15T08:25:10.605Z,2.00
2019-02-15T08:29:15.202Z,2.10
2019-02-15T08:33:19.590Z,2.80
2019-02-15T08:37:24.005Z,3.70
2019-02-15T08:41:28.525Z,4.90
2019-02-15T08:45:32.873Z,7.40
2019-02-15T08:49:37.746Z,7.50
2019-02-15T08:53:42.284Z,8.90
2019-02-15T08:57:46.953Z,10.20
2019-02-15T09:02:05.583Z,12.00
2019-02-15T09:06:12.622Z,12.10
2019-02-15T09:10:17.228Z,13.20
2019-02-15T09:14:21.767Z,14.10
2019-02-15T09:18:26.141Z,14.90
2019-02-15T09:22:30.420Z,15.60
2019-02-15T09:26:34.681Z,16.20
2019-02-15T09:30:39.240Z,16.90
2019-02-15T09:34:43.462Z,17.50
2019-02-15T09:38:47.675Z,18.40
2019-02-15T09:42:51.926Z,19.20
2019-02-15T09:46:56.180Z,19.10
2019-02-15T09:51:00.379Z,19.70
2019-02-15T09:55:04.690Z,20.60
2019-02-15T09:59:09.742Z,20.70
2019-02-15T10:03:14.017Z,21.20
2019-02-15T10:07:18.107Z,21.60
2019-02-15T10:11:22.326Z,22.00
2019-02-15T10:15:26.520Z,22.50
2019-02-15T10:19:30.756Z,23.00
2019-02-15T10:23:34.958Z,23.10
2019-02-15T10:27:39.126Z,22.70
2019-02-15T10:31:43.316Z,22.10
2019-02-15T10:35:47.466Z,21.10
2019-02-15T10:39:51.665Z,20.20
2019-02-15T10:43:55.809Z,19.30
2019-02-15T10:48:00.020Z,18.50
2019-02-15T10:52:04.171Z,17.70
2019-02-15T10:56:08.419Z,17.20
2019-02-15T11:00:16.785Z,17.00
2019-02-15T11:04:21.083Z,16.90
2019-02-15T11:08:25.284Z,17.10
2019-02-15T11:12:29.491Z,17.60
2019-02-15T11:16:33.726Z,18.60
2019-02-15T11:20:38.110Z,19.70
2019-02-15T11:24:42.379Z,20.80
2019-02-15T11:28:46.668Z,21.60
2019-02-15T11:32:50.841Z,22.50
2019-02-15T11:36:55.172Z,23.20
2019-02-15T11:40:59.591Z,24.30
2019-02-15T11:45:04.132Z,24.50
2019-02-15T11:49:08.485Z,25.30
2019-02-15T11:53:12.831Z,25.50
2019-02-15T11:57:17.159Z,25.90
2019-02-15T12:01:21.675Z,26.30
2019-02-15T12:05:26.047Z,26.60
2019-02-15T12:09:30.535Z,27.00
2019-02-15T12:13:34.812Z,27.30
2019-02-15T12:17:39.204Z,27.60
2019-02-15T12:21:43.617Z,27.90
2019-02-15T12:25:48.213Z,28.10
2019-02-15T12:29:52.532Z,28.20
2019-02-15T12:33:56.880Z,28.40
2019-02-15T12:38:01.262Z,28.60
2019-02-15T12:42:05.704Z,29.00
2019-02-15T12:46:10.056Z,29.20
2019-02-15T12:50:15.501Z,29.40
2019-02-15T12:54:19.879Z,29.60
2019-02-15T12:58:24.279Z,29.80
2019-02-15T13:02:28.811Z,29.70
2019-02-15T13:06:33.472Z,28.80
2019-02-15T13:10:40.708Z,27.70
2019-02-15T13:14:45.313Z,26.50
2019-02-15T13:18:50.265Z,25.40
2019-02-15T13:22:54.474Z,24.40
2019-02-15T13:26:58.662Z,23.50
2019-02-15T13:31:02.853Z,22.80
2019-02-15T13:35:08.209Z,22.10
2019-02-15T13:39:12.355Z,21.60
2019-02-15T13:43:16.542Z,21.10
2019-02-15T13:47:20.798Z,20.60
2019-02-15T13:51:25.162Z,20.30
2019-02-15T13:55:29.445Z,19.90
2019-02-15T13:59:33.605Z,19.60
2019-02-15T14:03:38.026Z,19.30
2019-02-15T14:07:42.677Z,19.10
2019-02-15T14:11:47.043Z,18.90
2019-02-15T14:15:51.300Z,18.70
2019-02-15T14:19:56.138Z,18.50
2019-02-15T14:24:01.209Z,18.40
2019-02-15T14:28:05.443Z,18.30
2019-02-15T14:32:09.690Z,18.10
2019-02-15T14:36:13.897Z,18.00
2019-02-15T14:40:18.162Z,17.90
2019-02-15T14:44:22.550Z,17.80
2019-02-15T14:48:26.892Z,17.90
2019-02-15T15:12:53.625Z,17.30
2019-02-15T15:16:57.971Z,17.40
2019-02-15T15:21:21.543Z,17.60
2019-02-15T15:25:25.877Z,17.70
2019-02-15T15:29:30.296Z,17.60
2019-02-15T15:33:34.747Z,17.50
2019-02-15T15:37:39.253Z,17.60
2019-02-15T15:41:43.770Z,17.70
2019-02-15T15:45:48.221Z,18.00
2019-02-15T15:49:52.679Z,18.30
2019-02-15T15:53:57.166Z,18.60
2019-02-15T15:58:01.807Z,19.00
2019-02-15T16:02:07.066Z,19.30
2019-02-15T16:06:11.306Z,19.60
2019-02-15T16:10:15.521Z,19.90
2019-02-15T16:14:19.685Z,20.00
2019-02-15T16:18:32.249Z,20.00
2019-02-15T16:22:29.789Z,20.00
2019-02-15T16:26:37.031Z,19.70
2019-02-15T16:30:41.219Z,19.20
2019-02-15T16:34:45.438Z,18.70
2019-02-15T16:38:49.634Z,18.10
2019-02-15T16:42:53.879Z,17.60
2019-02-15T16:46:58.187Z,16.90
2019-02-15T16:51:02.615Z,16.70
2019-02-15T16:55:12.717Z,16.40
2019-02-15T16:59:12.644Z,15.80
2019-02-15T17:03:16.837Z,15.60
2019-02-15T17:07:21.079Z,15.30
2019-02-15T17:11:25.266Z,15.10
2019-02-15T17:15:29.501Z,14.80
2019-02-15T17:19:33.809Z,14.60
2019-02-15T17:23:38.131Z,14.40
2019-02-15T17:27:42.556Z,14.20
2019-02-15T17:31:47.049Z,14.10
2019-02-15T17:35:51.418Z,13.90
2019-02-15T17:39:55.728Z,13.60
2019-02-15T17:44:00.112Z,13.50
2019-02-15T17:48:04.431Z,13.40
2019-02-15T17:52:08.903Z,13.20
2019-02-15T17:56:13.223Z,13.10
2019-02-15T18:00:19.506Z,12.90
2019-02-15T18:04:23.698Z,12.70
2019-02-15T18:08:27.974Z,12.50
2019-02-15T18:12:32.260Z,12.40
2019-02-15T18:16:36.382Z,12.00
2019-02-15T18:20:40.557Z,12.00
2019-02-15T18:24:44.662Z,11.90
2019-02-15T18:28:49.177Z,11.70
2019-02-15T18:32:53.397Z,11.60
2019-02-15T18:36:57.558Z,11.40
2019-02-15T18:41:13.331Z,11.20
2019-02-15T18:45:11.789Z,11.10
2019-02-15T18:49:19.289Z,11.00
2019-02-15T18:53:21.851Z,10.90
2019-02-15T18:57:26.179Z,10.80
2019-02-15T19:01:30.402Z,10.60
2019-02-15T19:05:34.543Z,10.60
2019-02-15T19:09:38.729Z,10.50
2019-02-15T19:13:43.002Z,10.40
2019-02-15T19:17:47.250Z,10.30
2019-02-15T19:21:53.114Z,10.20
2019-02-15T19:25:57.318Z,10.10
2019-02-15T19:30:04.175Z,10.10
2019-02-15T19:34:08.998Z,10.10
2019-02-15T19:38:14.397Z,10.00
2019-02-15T19:42:21.382Z,10.00
2019-02-15T19:46:25.680Z,10.00
2019-02-15T19:50:30.708Z,9.90
2019-02-15T19:54:36.519Z,9.90
2019-02-15T19:58:43.788Z,9.80
2019-02-15T20:02:47.114Z,9.80
2019-02-15T20:06:52.363Z,9.80
2019-02-15T20:10:57.556Z,9.80
2019-02-15T20:15:02.669Z,9.70
2019-02-15T20:19:07.284Z,9.70
2019-02-15T20:23:12.894Z,9.70
2019-02-15T20:27:18.607Z,9.60
2019-02-15T20:31:22.936Z,9.50
2019-02-15T20:35:27.530Z,9.50
2019-02-15T20:39:33.057Z,9.40
2019-02-15T20:43:38.006Z,9.40
2019-02-15T20:47:45.171Z,9.40
2019-02-15T20:51:51.279Z,9.40
2019-02-15T20:55:57.071Z,9.40
2019-02-15T21:00:01.348Z,9.40
2019-02-15T21:04:05.975Z,9.40
2019-02-15T21:08:10.167Z,9.40
2019-02-15T21:12:15.198Z,9.40
2019-02-15T21:16:19.516Z,9.50
2019-02-15T21:20:24.676Z,9.40
2019-02-15T21:24:29.198Z,9.40
2019-02-15T21:28:33.387Z,9.40
2019-02-15T21:32:37.570Z,9.40
2019-02-15T21:36:42.061Z,9.40
2019-02-15T21:40:46.327Z,9.30
2019-02-15T21:44:50.503Z,9.30
2019-02-15T21:48:54.685Z,9.40
2019-02-15T21:52:58.830Z,9.40
2019-02-15T21:57:03.031Z,9.50
2019-02-15T22:01:07.391Z,9.60
2019-02-15T22:05:11.544Z,9.60
2019-02-15T22:09:15.739Z,9.70
2019-02-15T22:13:19.926Z,9.70
2019-02-15T22:17:24.137Z,9.70
2019-02-15T22:21:28.320Z,9.80
2019-02-15T22:25:32.482Z,9.80
2019-02-15T22:29:45.280Z,9.80
2019-02-15T22:33:49.555Z,9.80
2019-02-15T22:37:53.742Z,9.80
2019-02-15T22:41:57.867Z,9.80
2019-02-15T22:46:02.030Z,9.70
2019-02-15T22:50:06.307Z,9.80
2019-02-15T22:54:10.499Z,9.70
2019-02-15T22:58:14.700Z,9.70
2019-02-15T23:02:19.234Z,9.70
2019-02-15T23:06:23.323Z,9.80
2019-02-15T23:10:27.510Z,9.70
2019-02-15T23:14:31.711Z,9.70
2019-02-15T23:18:35.982Z,9.60
2019-02-15T23:22:40.238Z,9.60
2019-02-15T23:26:44.409Z,9.60
2019-02-15T23:30:48.602Z,9.50
2019-02-15T23:34:52.778Z,9.50
2019-02-15T23:38:56.894Z,9.50
2019-02-15T23:43:01.015Z,9.50
2019-02-15T23:47:05.188Z,9.40
2019-02-15T23:51:09.382Z,9.40
2019-02-15T23:55:13.566Z,9.40
2019-02-15T23:59:17.820Z,9.30
